sensor_id;sensor_type;location;lat;lon;timestamp;temperature;humidity
52543;DHT22;38449;52.696;6.186;2024-01-10T00:02:19;-4.10;99.90
52543;DHT22;38449;52.696;6.186;2024-01-10T00:04:45;-4.20;99.90
52543;DHT22;38449;52.696;6.186;2024-01-10T00:07:12;-4.20;99.90
52543;DHT22;38449;52.696;6.186;2024-01-10T00:09:38;-4.20;99.90
52543;DHT22;38449;52.696;6.186;2024-01-10T00:12:06;-4.20;99.90
52543;DHT22;38449;52.696;6.186;2024-01-10T00:14:33;-4.20;99.90
52543;DHT22;38449;52.696;6.186;2024-01-10T00:16:59;-4.20;99.90
52543;DHT22;38449;52.696;6.186;2024-01-10T00:19:25;-4.10;99.90
52543;DHT22;38449;52.696;6.186;2024-01-10T00:21:52;-4.20;99.90
52543;DHT22;38449;52.696;6.186;2024-01-10T00:24:18;-4.10;99.90
52543;DHT22;38449;52.696;6.186;2024-01-10T00:26:46;-4.20;99.90
52543;DHT22;38449;52.696;6.186;2024-01-10T00:29:13;-4.10;99.90
52543;DHT22;38449;52.696;6.186;2024-01-10T00:31:41;-4.20;99.90
52543;DHT22;38449;52.696;6.186;2024-01-10T00:34:07;-4.20;99.90
52543;DHT22;38449;52.696;6.186;2024-01-10T00:36:33;-4.20;99.90
52543;DHT22;38449;52.696;6.186;2024-01-10T00:38:59;-4.30;99.90
52543;DHT22;38449;52.696;6.186;2024-01-10T00:41:26;-4.20;99.90
52543;DHT22;38449;52.696;6.186;2024-01-10T00:43:52;-4.20;99.90
52543;DHT22;38449;52.696;6.186;2024-01-10T00:46:20;-4.20;99.90
52543;DHT22;38449;52.696;6.186;2024-01-10T00:48:46;-4.20;99.90
52543;DHT22;38449;52.696;6.186;2024-01-10T00:51:13;-4.20;99.90
52543;DHT22;38449;52.696;6.186;2024-01-10T00:53:39;-4.20;99.90
52543;DHT22;38449;52.696;6.186;2024-01-10T00:56:06;-4.20;99.90
52543;DHT22;38449;52.696;6.186;2024-01-10T00:58:32;-4.20;99.90
52543;DHT22;38449;52.696;6.186;2024-01-10T01:00:59;-4.20;99.90
52543;DHT22;38449;52.696;6.186;2024-01-10T01:03:25;-4.10;99.90
52543;DHT22;38449;52.696;6.186;2024-01-10T01:05:51;-4.20;99.90
52543;DHT22;38449;52.696;6.186;2024-01-10T01:08:17;-4.20;99.90
52543;DHT22;38449;52.696;6.186;2024-01-10T01:10:44;-4.20;99.90
52543;DHT22;38449;52.696;6.186;2024-01-10T01:13:10;-4.30;99.90
52543;DHT22;38449;52.696;6.186;2024-01-10T01:15:36;-4.40;99.90
52543;DHT22;38449;52.696;6.186;2024-01-10T01:18:02;-4.40;99.90
52543;DHT22;38449;52.696;6.186;2024-01-10T01:20:29;-4.40;99.90
52543;DHT22;38449;52.696;6.186;2024-01-10T01:22:55;-4.30;99.90
52543;DHT22;38449;52.696;6.186;2024-01-10T01:25:21;-4.40;99.90
52543;DHT22;38449;52.696;6.186;2024-01-10T01:27:47;-4.40;99.90
52543;DHT22;38449;52.696;6.186;2024-01-10T01:30:14;-4.40;99.90
52543;DHT22;38449;52.696;6.186;2024-01-10T01:32:40;-4.40;99.90
52543;DHT22;38449;52.696;6.186;2024-01-10T01:35:06;-4.40;99.90
52543;DHT22;38449;52.696;6.186;2024-01-10T01:37:33;-4.40;99.90
52543;DHT22;38449;52.696;6.186;2024-01-10T01:39:59;-4.30;99.90
52543;DHT22;38449;52.696;6.186;2024-01-10T01:42:25;-4.30;99.90
52543;DHT22;38449;52.696;6.186;2024-01-10T01:44:52;-4.30;99.90
52543;DHT22;38449;52.696;6.186;2024-01-10T01:47:18;-4.30;99.90
52543;DHT22;38449;52.696;6.186;2024-01-10T01:49:44;-4.40;99.90
52543;DHT22;38449;52.696;6.186;2024-01-10T01:52:10;-4.40;99.90
52543;DHT22;38449;52.696;6.186;2024-01-10T01:54:37;-4.30;99.90
52543;DHT22;38449;52.696;6.186;2024-01-10T01:57:03;-4.40;99.90
52543;DHT22;38449;52.696;6.186;2024-01-10T01:59:30;-4.40;99.90
52543;DHT22;38449;52.696;6.186;2024-01-10T02:01:57;-4.40;99.90
52543;DHT22;38449;52.696;6.186;2024-01-10T02:04:26;-4.40;99.90
52543;DHT22;38449;52.696;6.186;2024-01-10T02:06:54;-4.40;99.90
52543;DHT22;38449;52.696;6.186;2024-01-10T02:09:20;-4.40;99.90
52543;DHT22;38449;52.696;6.186;2024-01-10T02:11:47;-4.40;99.90
52543;DHT22;38449;52.696;6.186;2024-01-10T02:14:13;-4.50;99.90
52543;DHT22;38449;52.696;6.186;2024-01-10T02:16:40;-4.40;99.90
52543;DHT22;38449;52.696;6.186;2024-01-10T02:19:20;-4.40;99.90
52543;DHT22;38449;52.696;6.186;2024-01-10T02:21:47;-4.40;99.90
52543;DHT22;38449;52.696;6.186;2024-01-10T02:24:13;-4.50;99.90
52543;DHT22;38449;52.696;6.186;2024-01-10T02:26:40;-4.50;99.90
52543;DHT22;38449;52.696;6.186;2024-01-10T02:29:06;-4.50;99.90
52543;DHT22;38449;52.696;6.186;2024-01-10T02:31:32;-4.50;99.90
52543;DHT22;38449;52.696;6.186;2024-01-10T02:33:59;-4.60;99.90
52543;DHT22;38449;52.696;6.186;2024-01-10T02:36:25;-4.60;99.90
52543;DHT22;38449;52.696;6.186;2024-01-10T02:38:51;-4.60;99.90
52543;DHT22;38449;52.696;6.186;2024-01-10T02:41:18;-4.60;99.90
52543;DHT22;38449;52.696;6.186;2024-01-10T02:43:44;-4.60;99.90
52543;DHT22;38449;52.696;6.186;2024-01-10T02:46:10;-4.50;99.90
52543;DHT22;38449;52.696;6.186;2024-01-10T02:48:37;-4.50;99.90
52543;DHT22;38449;52.696;6.186;2024-01-10T02:51:04;-4.60;99.90
52543;DHT22;38449;52.696;6.186;2024-01-10T02:53:30;-4.50;99.90
52543;DHT22;38449;52.696;6.186;2024-01-10T02:55:57;-4.60;99.90
52543;DHT22;38449;52.696;6.186;2024-01-10T02:58:24;-4.60;99.90
52543;DHT22;38449;52.696;6.186;2024-01-10T03:00:51;-4.40;99.90
52543;DHT22;38449;52.696;6.186;2024-01-10T03:03:17;-4.60;99.90
52543;DHT22;38449;52.696;6.186;2024-01-10T03:05:44;-4.60;99.90
52543;DHT22;38449;52.696;6.186;2024-01-10T03:08:10;-4.50;99.90
52543;DHT22;38449;52.696;6.186;2024-01-10T03:10:36;-4.60;99.90
52543;DHT22;38449;52.696;6.186;2024-01-10T03:13:03;-4.60;99.90
52543;DHT22;38449;52.696;6.186;2024-01-10T03:15:29;-4.70;99.90
52543;DHT22;38449;52.696;6.186;2024-01-10T03:17:57;-4.70;99.90
52543;DHT22;38449;52.696;6.186;2024-01-10T03:20:23;-4.50;99.90
52543;DHT22;38449;52.696;6.186;2024-01-10T03:22:49;-4.70;99.90
52543;DHT22;38449;52.696;6.186;2024-01-10T03:25:15;-4.60;99.90
52543;DHT22;38449;52.696;6.186;2024-01-10T03:27:42;-4.60;99.90
52543;DHT22;38449;52.696;6.186;2024-01-10T03:30:08;-4.60;99.90
52543;DHT22;38449;52.696;6.186;2024-01-10T03:32:35;-4.60;99.90
52543;DHT22;38449;52.696;6.186;2024-01-10T03:35:01;-4.60;99.90
52543;DHT22;38449;52.696;6.186;2024-01-10T03:37:27;-4.70;99.90
52543;DHT22;38449;52.696;6.186;2024-01-10T03:39:53;-4.50;99.90
52543;DHT22;38449;52.696;6.186;2024-01-10T03:42:20;-4.70;99.90
52543;DHT22;38449;52.696;6.186;2024-01-10T03:44:46;-4.70;99.90
52543;DHT22;38449;52.696;6.186;2024-01-10T03:47:12;-4.70;99.90
52543;DHT22;38449;52.696;6.186;2024-01-10T03:49:39;-4.70;99.90
52543;DHT22;38449;52.696;6.186;2024-01-10T03:52:05;-4.70;99.90
52543;DHT22;38449;52.696;6.186;2024-01-10T03:54:31;-4.70;99.90
52543;DHT22;38449;52.696;6.186;2024-01-10T03:56:58;-4.70;99.90
52543;DHT22;38449;52.696;6.186;2024-01-10T03:59:24;-4.70;99.90
52543;DHT22;38449;52.696;6.186;2024-01-10T04:01:50;-4.60;99.90
52543;DHT22;38449;52.696;6.186;2024-01-10T04:04:16;-4.70;99.90
52543;DHT22;38449;52.696;6.186;2024-01-10T04:06:43;-4.70;99.90
52543;DHT22;38449;52.696;6.186;2024-01-10T04:09:09;-4.70;99.90
52543;DHT22;38449;52.696;6.186;2024-01-10T04:11:36;-4.60;99.90
52543;DHT22;38449;52.696;6.186;2024-01-10T04:14:02;-4.60;99.90
52543;DHT22;38449;52.696;6.186;2024-01-10T04:16:29;-4.70;99.90
52543;DHT22;38449;52.696;6.186;2024-01-10T04:18:56;-4.70;99.90
52543;DHT22;38449;52.696;6.186;2024-01-10T04:21:22;-4.70;99.90
52543;DHT22;38449;52.696;6.186;2024-01-10T04:23:48;-4.70;99.90
52543;DHT22;38449;52.696;6.186;2024-01-10T04:26:14;-4.70;99.90
52543;DHT22;38449;52.696;6.186;2024-01-10T04:28:41;-4.70;99.90
52543;DHT22;38449;52.696;6.186;2024-01-10T04:31:07;-4.50;99.90
52543;DHT22;38449;52.696;6.186;2024-01-10T04:33:33;-4.70;99.90
52543;DHT22;38449;52.696;6.186;2024-01-10T04:36:00;-4.60;99.90
52543;DHT22;38449;52.696;6.186;2024-01-10T04:38:26;-4.60;99.90
52543;DHT22;38449;52.696;6.186;2024-01-10T04:40:52;-4.70;99.90
52543;DHT22;38449;52.696;6.186;2024-01-10T04:43:19;-4.70;99.90
52543;DHT22;38449;52.696;6.186;2024-01-10T04:45:46;-4.60;99.90
52543;DHT22;38449;52.696;6.186;2024-01-10T04:48:12;-4.60;99.90
52543;DHT22;38449;52.696;6.186;2024-01-10T04:50:38;-4.60;99.90
52543;DHT22;38449;52.696;6.186;2024-01-10T04:53:04;-4.60;99.90
52543;DHT22;38449;52.696;6.186;2024-01-10T04:55:31;-4.60;99.90
52543;DHT22;38449;52.696;6.186;2024-01-10T04:57:57;-4.60;99.90
52543;DHT22;38449;52.696;6.186;2024-01-10T05:00:23;-4.60;99.90
52543;DHT22;38449;52.696;6.186;2024-01-10T05:02:49;-4.60;99.90
52543;DHT22;38449;52.696;6.186;2024-01-10T05:05:16;-4.50;99.90
52543;DHT22;38449;52.696;6.186;2024-01-10T05:07:44;-4.40;99.90
52543;DHT22;38449;52.696;6.186;2024-01-10T05:10:10;-4.40;99.90
52543;DHT22;38449;52.696;6.186;2024-01-10T05:12:36;-4.50;99.90
52543;DHT22;38449;52.696;6.186;2024-01-10T05:15:04;-4.40;99.90
52543;DHT22;38449;52.696;6.186;2024-01-10T05:17:30;-4.50;99.90
52543;DHT22;38449;52.696;6.186;2024-01-10T05:19:57;-4.50;99.90
52543;DHT22;38449;52.696;6.186;2024-01-10T05:22:23;-4.40;99.90
52543;DHT22;38449;52.696;6.186;2024-01-10T05:24:49;-4.40;99.90
52543;DHT22;38449;52.696;6.186;2024-01-10T05:27:16;-4.50;99.90
52543;DHT22;38449;52.696;6.186;2024-01-10T05:29:42;-4.50;99.90
52543;DHT22;38449;52.696;6.186;2024-01-10T05:32:08;-4.50;99.90
52543;DHT22;38449;52.696;6.186;2024-01-10T05:34:34;-4.40;99.90
52543;DHT22;38449;52.696;6.186;2024-01-10T05:37:01;-4.40;99.90
52543;DHT22;38449;52.696;6.186;2024-01-10T05:39:27;-4.30;99.90
52543;DHT22;38449;52.696;6.186;2024-01-10T05:41:53;-4.40;99.90
52543;DHT22;38449;52.696;6.186;2024-01-10T05:44:19;-4.40;99.90
52543;DHT22;38449;52.696;6.186;2024-01-10T05:46:46;-4.40;99.90
52543;DHT22;38449;52.696;6.186;2024-01-10T05:49:13;-4.40;99.90
52543;DHT22;38449;52.696;6.186;2024-01-10T05:51:40;-4.40;99.90
52543;DHT22;38449;52.696;6.186;2024-01-10T05:54:06;-4.40;99.90
52543;DHT22;38449;52.696;6.186;2024-01-10T05:56:33;-4.30;99.90
52543;DHT22;38449;52.696;6.186;2024-01-10T05:58:59;-4.40;99.90
52543;DHT22;38449;52.696;6.186;2024-01-10T06:01:25;-4.40;99.90
52543;DHT22;38449;52.696;6.186;2024-01-10T06:03:52;-4.40;99.90
52543;DHT22;38449;52.696;6.186;2024-01-10T06:06:19;-4.40;99.90
52543;DHT22;38449;52.696;6.186;2024-01-10T06:08:45;-4.40;99.90
52543;DHT22;38449;52.696;6.186;2024-01-10T06:11:11;-4.40;99.90
52543;DHT22;38449;52.696;6.186;2024-01-10T06:13:38;-4.40;99.90
52543;DHT22;38449;52.696;6.186;2024-01-10T06:16:04;-4.50;99.90
52543;DHT22;38449;52.696;6.186;2024-01-10T06:18:30;-4.50;99.90
52543;DHT22;38449;52.696;6.186;2024-01-10T06:20:57;-4.50;99.90
52543;DHT22;38449;52.696;6.186;2024-01-10T06:23:24;-4.50;99.90
52543;DHT22;38449;52.696;6.186;2024-01-10T06:25:50;-4.60;99.90
52543;DHT22;38449;52.696;6.186;2024-01-10T06:28:16;-4.70;99.90
52543;DHT22;38449;52.696;6.186;2024-01-10T06:30:42;-4.70;99.90
52543;DHT22;38449;52.696;6.186;2024-01-10T06:33:09;-4.70;99.90
52543;DHT22;38449;52.696;6.186;2024-01-10T06:35:35;-4.70;99.90
52543;DHT22;38449;52.696;6.186;2024-01-10T06:38:02;-4.70;99.90
52543;DHT22;38449;52.696;6.186;2024-01-10T06:40:29;-4.80;99.90
52543;DHT22;38449;52.696;6.186;2024-01-10T06:42:56;-4.80;99.90
52543;DHT22;38449;52.696;6.186;2024-01-10T06:45:22;-4.70;99.90
52543;DHT22;38449;52.696;6.186;2024-01-10T06:47:49;-4.70;99.90
52543;DHT22;38449;52.696;6.186;2024-01-10T06:50:15;-4.10;99.90
52543;DHT22;38449;52.696;6.186;2024-01-10T06:52:42;-4.70;99.90
52543;DHT22;38449;52.696;6.186;2024-01-10T06:55:08;-4.70;99.90
52543;DHT22;38449;52.696;6.186;2024-01-10T06:57:34;-4.70;99.90
52543;DHT22;38449;52.696;6.186;2024-01-10T07:00:00;-4.70;99.90
52543;DHT22;38449;52.696;6.186;2024-01-10T07:02:29;-4.70;99.90
52543;DHT22;38449;52.696;6.186;2024-01-10T07:04:55;-4.70;99.90
52543;DHT22;38449;52.696;6.186;2024-01-10T07:07:22;-4.70;99.90
52543;DHT22;38449;52.696;6.186;2024-01-10T07:09:48;-4.80;99.90
52543;DHT22;38449;52.696;6.186;2024-01-10T07:12:15;-4.80;99.90
52543;DHT22;38449;52.696;6.186;2024-01-10T07:14:41;-4.70;99.90
52543;DHT22;38449;52.696;6.186;2024-01-10T07:17:07;-4.70;99.90
52543;DHT22;38449;52.696;6.186;2024-01-10T07:19:34;-4.80;99.90
52543;DHT22;38449;52.696;6.186;2024-01-10T07:22:00;-4.80;99.90
52543;DHT22;38449;52.696;6.186;2024-01-10T07:24:27;-4.70;99.90
52543;DHT22;38449;52.696;6.186;2024-01-10T07:26:53;-4.60;99.90
52543;DHT22;38449;52.696;6.186;2024-01-10T07:29:19;-4.70;99.90
52543;DHT22;38449;52.696;6.186;2024-01-10T07:31:45;-4.70;99.90
52543;DHT22;38449;52.696;6.186;2024-01-10T07:34:12;-4.70;99.90
52543;DHT22;38449;52.696;6.186;2024-01-10T07:36:42;-4.70;99.90
52543;DHT22;38449;52.696;6.186;2024-01-10T07:39:08;-4.40;99.90
52543;DHT22;38449;52.696;6.186;2024-01-10T07:41:35;-4.60;99.90
52543;DHT22;38449;52.696;6.186;2024-01-10T07:44:01;-4.60;99.90
52543;DHT22;38449;52.696;6.186;2024-01-10T07:46:29;-4.60;99.90
52543;DHT22;38449;52.696;6.186;2024-01-10T07:48:55;-4.60;99.90
52543;DHT22;38449;52.696;6.186;2024-01-10T07:51:21;-4.60;99.90
52543;DHT22;38449;52.696;6.186;2024-01-10T07:53:48;-4.70;99.90
52543;DHT22;38449;52.696;6.186;2024-01-10T07:56:15;-4.80;99.90
52543;DHT22;38449;52.696;6.186;2024-01-10T07:58:41;-4.80;99.90
52543;DHT22;38449;52.696;6.186;2024-01-10T08:01:08;-4.90;99.90
52543;DHT22;38449;52.696;6.186;2024-01-10T08:03:37;-4.90;99.90
52543;DHT22;38449;52.696;6.186;2024-01-10T08:06:03;-4.80;99.90
52543;DHT22;38449;52.696;6.186;2024-01-10T08:08:29;-4.90;99.90
52543;DHT22;38449;52.696;6.186;2024-01-10T08:10:56;-4.80;99.90
52543;DHT22;38449;52.696;6.186;2024-01-10T08:13:22;-4.70;99.90
52543;DHT22;38449;52.696;6.186;2024-01-10T08:15:49;-4.80;99.90
52543;DHT22;38449;52.696;6.186;2024-01-10T08:18:15;-4.70;99.90
52543;DHT22;38449;52.696;6.186;2024-01-10T08:20:41;-4.70;99.90
52543;DHT22;38449;52.696;6.186;2024-01-10T08:23:08;-4.70;99.90
52543;DHT22;38449;52.696;6.186;2024-01-10T08:25:34;-5.10;99.90
52543;DHT22;38449;52.696;6.186;2024-01-10T08:28:00;-4.50;99.90
52543;DHT22;38449;52.696;6.186;2024-01-10T08:30:26;-4.40;99.90
52543;DHT22;38449;52.696;6.186;2024-01-10T08:32:53;-4.40;99.90
52543;DHT22;38449;52.696;6.186;2024-01-10T08:35:19;-4.30;99.90
52543;DHT22;38449;52.696;6.186;2024-01-10T08:37:46;-4.20;99.90
52543;DHT22;38449;52.696;6.186;2024-01-10T08:40:12;-4.10;99.90
52543;DHT22;38449;52.696;6.186;2024-01-10T08:42:41;-4.10;99.90
52543;DHT22;38449;52.696;6.186;2024-01-10T08:45:09;-4.00;99.90
52543;DHT22;38449;52.696;6.186;2024-01-10T08:47:37;-4.00;99.90
52543;DHT22;38449;52.696;6.186;2024-01-10T08:50:04;-3.90;99.90
52543;DHT22;38449;52.696;6.186;2024-01-10T08:52:37;-3.90;99.90
52543;DHT22;38449;52.696;6.186;2024-01-10T08:55:05;-3.80;99.90
52543;DHT22;38449;52.696;6.186;2024-01-10T08:57:32;-3.70;99.90
52543;DHT22;38449;52.696;6.186;2024-01-10T08:59:59;-3.70;99.90
52543;DHT22;38449;52.696;6.186;2024-01-10T09:02:26;-3.70;99.90
52543;DHT22;38449;52.696;6.186;2024-01-10T09:04:53;-3.70;99.90
52543;DHT22;38449;52.696;6.186;2024-01-10T09:07:20;-3.60;99.90
52543;DHT22;38449;52.696;6.186;2024-01-10T09:09:47;-3.60;99.90
52543;DHT22;38449;52.696;6.186;2024-01-10T09:12:14;-3.50;99.90
52543;DHT22;38449;52.696;6.186;2024-01-10T09:14:40;-3.40;99.90
52543;DHT22;38449;52.696;6.186;2024-01-10T09:17:07;-3.30;99.90
52543;DHT22;38449;52.696;6.186;2024-01-10T09:19:33;-3.30;99.90
52543;DHT22;38449;52.696;6.186;2024-01-10T09:21:59;-3.30;99.90
52543;DHT22;38449;52.696;6.186;2024-01-10T09:24:26;-3.20;99.90
52543;DHT22;38449;52.696;6.186;2024-01-10T09:26:52;-3.20;99.90
52543;DHT22;38449;52.696;6.186;2024-01-10T09:29:19;-3.10;99.90
52543;DHT22;38449;52.696;6.186;2024-01-10T09:31:49;-3.10;99.90
52543;DHT22;38449;52.696;6.186;2024-01-10T09:34:15;-3.10;99.90
52543;DHT22;38449;52.696;6.186;2024-01-10T09:36:42;-3.10;99.90
52543;DHT22;38449;52.696;6.186;2024-01-10T09:39:08;-3.00;99.90
52543;DHT22;38449;52.696;6.186;2024-01-10T09:41:49;-2.90;99.90
52543;DHT22;38449;52.696;6.186;2024-01-10T09:44:20;-2.80;99.90
52543;DHT22;38449;52.696;6.186;2024-01-10T09:46:54;-2.70;99.90
52543;DHT22;38449;52.696;6.186;2024-01-10T09:49:21;-2.70;99.90
52543;DHT22;38449;52.696;6.186;2024-01-10T09:51:48;-2.70;99.90
52543;DHT22;38449;52.696;6.186;2024-01-10T09:54:16;-2.70;99.90
52543;DHT22;38449;52.696;6.186;2024-01-10T09:56:42;-2.60;99.90
52543;DHT22;38449;52.696;6.186;2024-01-10T09:59:10;-2.70;99.90
52543;DHT22;38449;52.696;6.186;2024-01-10T10:01:37;-2.70;99.90
52543;DHT22;38449;52.696;6.186;2024-01-10T10:04:07;-2.60;99.90
52543;DHT22;38449;52.696;6.186;2024-01-10T10:06:34;-2.50;99.90
52543;DHT22;38449;52.696;6.186;2024-01-10T10:09:00;-2.00;99.90
52543;DHT22;38449;52.696;6.186;2024-01-10T10:11:27;-2.40;99.90
52543;DHT22;38449;52.696;6.186;2024-01-10T10:13:53;-2.30;99.90
52543;DHT22;38449;52.696;6.186;2024-01-10T10:16:23;-2.20;99.90
52543;DHT22;38449;52.696;6.186;2024-01-10T10:18:51;-1.90;99.90
52543;DHT22;38449;52.696;6.186;2024-01-10T10:21:20;-2.20;99.90
52543;DHT22;38449;52.696;6.186;2024-01-10T10:23:59;-2.10;99.90
52543;DHT22;38449;52.696;6.186;2024-01-10T10:26:27;-2.00;99.90
52543;DHT22;38449;52.696;6.186;2024-01-10T10:28:53;-2.00;99.90
52543;DHT22;38449;52.696;6.186;2024-01-10T10:31:20;-2.00;99.90
52543;DHT22;38449;52.696;6.186;2024-01-10T10:33:48;-2.00;99.90
52543;DHT22;38449;52.696;6.186;2024-01-10T10:36:15;-1.90;99.90
52543;DHT22;38449;52.696;6.186;2024-01-10T10:38:42;-1.90;99.90
52543;DHT22;38449;52.696;6.186;2024-01-10T10:41:08;-1.90;99.90
52543;DHT22;38449;52.696;6.186;2024-01-10T10:43:40;-1.80;99.90
52543;DHT22;38449;52.696;6.186;2024-01-10T10:46:09;-1.80;99.90
52543;DHT22;38449;52.696;6.186;2024-01-10T10:48:36;-1.70;99.90
52543;DHT22;38449;52.696;6.186;2024-01-10T10:51:09;-1.70;99.90
52543;DHT22;38449;52.696;6.186;2024-01-10T10:53:38;-1.70;99.90
52543;DHT22;38449;52.696;6.186;2024-01-10T10:56:07;-1.60;99.90
52543;DHT22;38449;52.696;6.186;2024-01-10T10:58:43;-1.50;99.90
52543;DHT22;38449;52.696;6.186;2024-01-10T11:01:12;-1.50;99.90
52543;DHT22;38449;52.696;6.186;2024-01-10T11:03:39;-1.50;99.90
52543;DHT22;38449;52.696;6.186;2024-01-10T11:06:06;-1.50;99.90
52543;DHT22;38449;52.696;6.186;2024-01-10T11:08:40;-1.40;99.90
52543;DHT22;38449;52.696;6.186;2024-01-10T11:17:07;-1.30;99.90
52543;DHT22;38449;52.696;6.186;2024-01-10T11:22:43;-1.20;99.90
52543;DHT22;38449;52.696;6.186;2024-01-10T11:25:13;-1.10;99.90
52543;DHT22;38449;52.696;6.186;2024-01-10T11:27:40;-1.10;99.90
52543;DHT22;38449;52.696;6.186;2024-01-10T11:30:08;-1.00;99.90
52543;DHT22;38449;52.696;6.186;2024-01-10T11:32:37;-1.00;99.90
52543;DHT22;38449;52.696;6.186;2024-01-10T11:35:21;-1.00;99.90
52543;DHT22;38449;52.696;6.186;2024-01-10T11:37:47;-1.00;99.90
52543;DHT22;38449;52.696;6.186;2024-01-10T11:40:45;-0.90;99.90
52543;DHT22;38449;52.696;6.186;2024-01-10T11:43:13;-0.90;99.90
52543;DHT22;38449;52.696;6.186;2024-01-10T11:45:50;-0.80;99.90
52543;DHT22;38449;52.696;6.186;2024-01-10T11:48:25;-0.70;99.90
52543;DHT22;38449;52.696;6.186;2024-01-10T11:50:52;-0.70;99.90
52543;DHT22;38449;52.696;6.186;2024-01-10T11:53:37;-0.70;99.90
52543;DHT22;38449;52.696;6.186;2024-01-10T11:56:10;-0.60;99.90
52543;DHT22;38449;52.696;6.186;2024-01-10T11:59:07;-0.50;99.90
52543;DHT22;38449;52.696;6.186;2024-01-10T12:01:36;-0.40;99.90
52543;DHT22;38449;52.696;6.186;2024-01-10T12:04:03;-0.50;99.90
52543;DHT22;38449;52.696;6.186;2024-01-10T12:06:31;-0.50;99.90
52543;DHT22;38449;52.696;6.186;2024-01-10T12:08:57;-0.40;99.90
52543;DHT22;38449;52.696;6.186;2024-01-10T12:11:24;-0.40;99.90
52543;DHT22;38449;52.696;6.186;2024-01-10T12:13:50;-0.40;99.90
52543;DHT22;38449;52.696;6.186;2024-01-10T12:16:16;-0.40;99.90
52543;DHT22;38449;52.696;6.186;2024-01-10T12:18:44;-0.40;99.90
52543;DHT22;38449;52.696;6.186;2024-01-10T12:21:10;-0.40;99.90
52543;DHT22;38449;52.696;6.186;2024-01-10T12:23:38;-0.30;99.90
52543;DHT22;38449;52.696;6.186;2024-01-10T12:26:10;-0.30;99.90
52543;DHT22;38449;52.696;6.186;2024-01-10T12:28:40;-0.20;99.90
52543;DHT22;38449;52.696;6.186;2024-01-10T12:31:06;-0.20;99.90
52543;DHT22;38449;52.696;6.186;2024-01-10T12:33:38;-0.20;99.90
52543;DHT22;38449;52.696;6.186;2024-01-10T12:36:09;-0.20;99.90
52543;DHT22;38449;52.696;6.186;2024-01-10T12:38:37;-0.20;99.90
52543;DHT22;38449;52.696;6.186;2024-01-10T12:41:05;-0.10;99.90
52543;DHT22;38449;52.696;6.186;2024-01-10T12:43:31;-0.10;99.90
52543;DHT22;38449;52.696;6.186;2024-01-10T12:46:08;-0.10;99.90
52543;DHT22;38449;52.696;6.186;2024-01-10T12:48:34;-0.10;99.90
52543;DHT22;38449;52.696;6.186;2024-01-10T12:51:05;0.00;99.90
52543;DHT22;38449;52.696;6.186;2024-01-10T12:53:36;0.00;99.90
52543;DHT22;38449;52.696;6.186;2024-01-10T12:56:03;0.00;99.90
52543;DHT22;38449;52.696;6.186;2024-01-10T12:58:31;0.00;99.90
52543;DHT22;38449;52.696;6.186;2024-01-10T13:00:57;0.10;99.90
52543;DHT22;38449;52.696;6.186;2024-01-10T13:03:24;0.10;99.90
52543;DHT22;38449;52.696;6.186;2024-01-10T13:05:50;0.10;99.90
52543;DHT22;38449;52.696;6.186;2024-01-10T13:08:18;0.10;99.90
52543;DHT22;38449;52.696;6.186;2024-01-10T13:10:46;0.00;99.90
52543;DHT22;38449;52.696;6.186;2024-01-10T13:13:13;0.00;99.90
52543;DHT22;38449;52.696;6.186;2024-01-10T13:15:44;0.00;99.90
52543;DHT22;38449;52.696;6.186;2024-01-10T13:18:13;0.00;99.90
52543;DHT22;38449;52.696;6.186;2024-01-10T13:20:43;0.10;99.90
52543;DHT22;38449;52.696;6.186;2024-01-10T13:23:09;0.10;99.90
52543;DHT22;38449;52.696;6.186;2024-01-10T13:25:36;0.00;99.90
52543;DHT22;38449;52.696;6.186;2024-01-10T13:28:04;0.00;99.90
52543;DHT22;38449;52.696;6.186;2024-01-10T13:30:30;0.00;99.90
52543;DHT22;38449;52.696;6.186;2024-01-10T13:32:57;0.00;99.90
52543;DHT22;38449;52.696;6.186;2024-01-10T13:35:24;0.00;99.90
52543;DHT22;38449;52.696;6.186;2024-01-10T13:37:50;0.10;99.90
52543;DHT22;38449;52.696;6.186;2024-01-10T13:40:17;0.10;99.90
52543;DHT22;38449;52.696;6.186;2024-01-10T13:42:43;0.00;99.90
52543;DHT22;38449;52.696;6.186;2024-01-10T13:45:10;-0.10;99.90
52543;DHT22;38449;52.696;6.186;2024-01-10T13:47:37;-0.20;99.90
52543;DHT22;38449;52.696;6.186;2024-01-10T13:50:05;-0.20;99.90
52543;DHT22;38449;52.696;6.186;2024-01-10T13:52:32;-0.10;99.90
52543;DHT22;38449;52.696;6.186;2024-01-10T13:54:59;-0.10;99.90
52543;DHT22;38449;52.696;6.186;2024-01-10T13:57:26;-0.20;99.90
52543;DHT22;38449;52.696;6.186;2024-01-10T13:59:52;-0.10;99.90
52543;DHT22;38449;52.696;6.186;2024-01-10T14:02:24;-0.10;99.90
52543;DHT22;38449;52.696;6.186;2024-01-10T14:04:52;-0.10;99.90
52543;DHT22;38449;52.696;6.186;2024-01-10T14:07:20;-0.20;99.90
52543;DHT22;38449;52.696;6.186;2024-01-10T14:09:46;-0.10;99.90
52543;DHT22;38449;52.696;6.186;2024-01-10T14:12:13;-0.10;99.90
52543;DHT22;38449;52.696;6.186;2024-01-10T14:14:39;-0.10;99.90
52543;DHT22;38449;52.696;6.186;2024-01-10T14:17:05;-0.10;99.90
52543;DHT22;38449;52.696;6.186;2024-01-10T14:19:32;-0.20;99.90
52543;DHT22;38449;52.696;6.186;2024-01-10T14:21:58;-0.20;99.90
52543;DHT22;38449;52.696;6.186;2024-01-10T14:24:25;-0.20;99.90
52543;DHT22;38449;52.696;6.186;2024-01-10T14:26:51;-0.20;99.90
52543;DHT22;38449;52.696;6.186;2024-01-10T14:29:18;-0.10;99.90
52543;DHT22;38449;52.696;6.186;2024-01-10T14:31:45;-0.20;99.90
52543;DHT22;38449;52.696;6.186;2024-01-10T14:34:11;-0.10;99.90
52543;DHT22;38449;52.696;6.186;2024-01-10T14:36:37;-0.20;99.90
52543;DHT22;38449;52.696;6.186;2024-01-10T14:39:03;-0.20;99.90
52543;DHT22;38449;52.696;6.186;2024-01-10T14:41:33;-0.20;99.90
52543;DHT22;38449;52.696;6.186;2024-01-10T14:44:00;-0.30;99.90
52543;DHT22;38449;52.696;6.186;2024-01-10T14:46:27;-0.30;99.90
52543;DHT22;38449;52.696;6.186;2024-01-10T14:48:54;-0.40;99.90
52543;DHT22;38449;52.696;6.186;2024-01-10T14:51:20;-0.30;99.90
52543;DHT22;38449;52.696;6.186;2024-01-10T14:53:48;-0.30;99.90
52543;DHT22;38449;52.696;6.186;2024-01-10T14:56:14;-0.30;99.90
52543;DHT22;38449;52.696;6.186;2024-01-10T14:58:40;-0.30;99.90
52543;DHT22;38449;52.696;6.186;2024-01-10T15:01:09;-0.30;99.90
52543;DHT22;38449;52.696;6.186;2024-01-10T15:03:36;-0.40;99.90
52543;DHT22;38449;52.696;6.186;2024-01-10T15:06:05;-0.40;99.90
52543;DHT22;38449;52.696;6.186;2024-01-10T15:08:32;-0.40;99.90
52543;DHT22;38449;52.696;6.186;2024-01-10T15:11:03;-0.50;99.90
52543;DHT22;38449;52.696;6.186;2024-01-10T15:13:29;-0.60;99.90
52543;DHT22;38449;52.696;6.186;2024-01-10T15:15:55;-0.60;99.90
52543;DHT22;38449;52.696;6.186;2024-01-10T15:18:21;-0.70;99.90
52543;DHT22;38449;52.696;6.186;2024-01-10T15:20:47;-0.80;99.90
52543;DHT22;38449;52.696;6.186;2024-01-10T15:23:14;-0.80;99.90
52543;DHT22;38449;52.696;6.186;2024-01-10T15:25:40;-0.80;99.90
52543;DHT22;38449;52.696;6.186;2024-01-10T15:28:07;-0.80;99.90
52543;DHT22;38449;52.696;6.186;2024-01-10T15:30:34;-0.90;99.90
52543;DHT22;38449;52.696;6.186;2024-01-10T15:33:00;-0.90;99.90
52543;DHT22;38449;52.696;6.186;2024-01-10T15:35:27;-0.80;99.90
52543;DHT22;38449;52.696;6.186;2024-01-10T15:37:53;-0.90;99.90
52543;DHT22;38449;52.696;6.186;2024-01-10T15:40:19;-1.00;99.90
52543;DHT22;38449;52.696;6.186;2024-01-10T15:42:45;-1.00;99.90